MZP weather

Motueka Airport
Tasman Region, New Zealand

Public forecast

Using degrees Celsius for public forecast. Weather courtesy of forecast.io.

Closest aviation weather report (METAR) to Motueka Airport

Closest report is Wellington International Airport, 82.9 nm (153.6 km) E. Retrieved 2020/02/25 22:00 UTC (14 minutes ago):

NZWN 252200Z AUTO 19007KT 9999 NCD 18/14 Q1017 NOSIG

Closest aviation forecast (TAF) to Motueka Airport

Closest forecast is Wellington International Airport, 82.9 nm (153.6 km) E. Retrieved 2020/02/25 18:03 UTC (4 hours ago):

TAF NZWN 251701Z 2518/2618 02005KT CAVOK BECMG 2523/2601 20010KT BECMG 2604/2606 02005KT